Time;durP1;ratioP1;P1;durP2;ratioP2;P2;SDS_P1;SDS_P2;PMS_P1;PMS_P2;Temp;Humidity;BMP_temperature;BMP_pressure;BME280_temperature;BME280_humidity;BME280_pressure;Samples;Min_cycle;Max_cycle;Signal;HPM_P1;HPM_P2
2022/01/09 10:24:24;;;;;;;18.77;2.70;;;4.20;91.50;;;;;;5102237;27;1420348;-51
2022/01/09 10:26:53;;;;;;;11.45;2.35;;;4.20;91.90;;;;;;5115892;28;20455;-49
2022/01/09 10:29:19;;;;;;;20.77;2.83;;;4.20;92.10;;;;;;5122047;27;20031;-49
2022/01/09 10:31:46;;;;;;;21.42;3.33;;;4.30;91.80;;;;;;5125380;28;20042;-48
2022/01/09 10:34:15;;;;;;;16.00;2.95;;;4.40;91.70;;;;;;5123938;28;20462;-48
2022/01/09 10:36:42;;;;;;;20.17;3.88;;;4.50;91.50;;;;;;5126701;28;20036;-49
2022/01/09 10:39:09;;;;;;;21.90;2.97;;;4.60;91.40;;;;;;5131025;28;20088;-52
2022/01/09 10:41:36;;;;;;;16.38;2.85;;;4.70;91.00;;;;;;5130303;27;20045;-49
2022/01/09 10:44:03;;;;;;;10.43;2.75;;;4.80;90.90;;;;;;5130752;28;20063;-52
2022/01/09 10:46:32;;;;;;;13.75;3.20;;;4.80;90.70;;;;;;5130461;28;20406;-53
2022/01/09 10:48:59;;;;;;;12.32;2.67;;;4.90;90.30;;;;;;5130238;27;20084;-51
2022/01/09 10:51:25;;;;;;;14.60;3.03;;;4.90;90.10;;;;;;5130727;27;20035;-49
2022/01/09 10:53:52;;;;;;;13.43;3.95;;;5.00;90.20;;;;;;5128197;28;20050;-48
2022/01/09 10:56:20;;;;;;;14.07;2.90;;;5.00;89.40;;;;;;5130014;27;20214;-46
2022/01/09 10:58:47;;;;;;;15.63;2.80;;;5.10;89.40;;;;;;5130407;27;20028;-47
2022/01/09 11:01:13;;;;;;;17.65;2.88;;;5.10;89.80;;;;;;5130308;27;20050;-49
2022/01/09 11:03:40;;;;;;;17.08;2.90;;;5.20;89.80;;;;;;5130190;28;20046;-46
2022/01/09 11:06:07;;;;;;;20.35;3.35;;;5.20;89.10;;;;;;5130039;27;20036;-53
2022/01/09 11:08:34;;;;;;;16.00;3.30;;;5.30;88.90;;;;;;5130369;28;20050;-47
2022/01/09 11:11:01;;;;;;;14.10;2.55;;;5.30;89.60;;;;;;5129608;27;20034;-48
2022/01/09 11:13:28;;;;;;;13.15;3.30;;;5.30;89.00;;;;;;5128874;28;20084;-50
2022/01/09 11:18:40;;;;;;;12.80;2.90;;;5.40;87.90;;;;;;5129982;28;20501;-50
2022/01/09 11:21:07;;;;;;;13.73;3.78;;;5.50;88.50;;;;;;5130305;27;20061;-48
2022/01/09 11:23:34;;;;;;;15.43;3.13;;;5.50;88.50;;;;;;5129843;27;20058;-48
2022/01/09 11:26:01;;;;;;;15.23;2.85;;;5.50;87.90;;;;;;5129177;28;20092;-49
2022/01/09 11:28:27;;;;;;;14.77;2.47;;;5.60;87.30;;;;;;5129964;27;20486;-48
2022/01/09 11:30:56;;;;;;;13.60;2.85;;;5.60;86.50;;;;;;5129959;28;20035;-48
2022/01/09 11:33:23;;;;;;;11.82;2.60;;;5.60;87.00;;;;;;5128877;27;20374;-51
2022/01/09 11:35:50;;;;;;;13.38;2.83;;;5.70;86.20;;;;;;5116045;28;20044;-47
2022/01/09 11:38:17;;;;;;;17.05;2.88;;;5.70;86.60;;;;;;5114907;28;20214;-51
2022/01/09 11:40:44;;;;;;;11.77;2.47;;;5.80;86.00;;;;;;5116070;28;20156;-46
2022/01/09 11:43:13;;;;;;;13.00;2.72;;;5.80;86.10;;;;;;5116152;28;20435;-50
2022/01/09 11:45:40;;;;;;;11.73;3.88;;;5.80;86.20;;;;;;5115894;28;20043;-49
2022/01/09 11:48:07;;;;;;;10.98;2.35;;;5.90;86.40;;;;;;5115061;28;20442;-50
2022/01/09 11:50:34;;;;;;;11.95;2.90;;;5.90;85.00;;;;;;5115788;28;20035;-52
2022/01/09 11:53:01;;;;;;;9.65;2.50;;;5.90;85.90;;;;;;5115330;28;20391;-49
2022/01/09 11:55:27;;;;;;;13.90;2.85;;;5.90;86.10;;;;;;5115778;28;20042;-48
2022/01/09 11:57:56;;;;;;;12.55;2.80;;;5.90;85.10;;;;;;5115688;28;20062;-52
2022/01/09 12:00:23;;;;;;;17.05;2.67;;;6.00;84.70;;;;;;5115646;28;20516;-50
2022/01/09 12:02:50;;;;;;;13.43;2.78;;;5.90;84.90;;;;;;5115502;28;20054;-49
2022/01/09 12:05:17;;;;;;;12.82;2.42;;;6.00;85.60;;;;;;5115546;28;20122;-50
2022/01/09 12:07:44;;;;;;;9.85;2.40;;;5.90;85.10;;;;;;5115308;28;20071;-50
2022/01/09 12:10:11;;;;;;;9.93;2.85;;;6.00;85.10;;;;;;5115636;28;20066;-48
2022/01/09 12:12:38;;;;;;;9.95;2.67;;;6.00;85.50;;;;;;5115599;28;20043;-49
2022/01/09 12:15:04;;;;;;;15.50;2.90;;;6.00;85.70;;;;;;5115519;28;20092;-48
2022/01/09 12:17:32;;;;;;;11.38;2.40;;;6.00;85.00;;;;;;5115221;28;20039;-49
2022/01/09 12:20:08;;;;;;;12.65;2.90;;;6.00;85.30;;;;;;5115578;28;20539;-52
2022/01/09 12:22:35;;;;;;;15.65;2.95;;;6.00;85.30;;;;;;5115297;28;20447;-50
2022/01/09 12:25:01;;;;;;;11.70;2.70;;;6.10;85.30;;;;;;5114340;28;20093;-53
2022/01/09 12:27:28;;;;;;;17.77;3.22;;;6.10;84.50;;;;;;5115146;28;20123;-49
2022/01/09 12:29:55;;;;;;;11.88;2.38;;;6.10;83.60;;;;;;5114452;28;20042;-50
2022/01/09 12:32:22;;;;;;;14.65;4.55;;;6.20;84.00;;;;;;5113878;28;20040;-50
2022/01/09 12:34:49;;;;;;;14.77;2.72;;;6.20;84.80;;;;;;5115044;28;20039;-52
2022/01/09 12:37:15;;;;;;;14.38;3.00;;;6.20;85.00;;;;;;5115058;28;20577;-49
2022/01/09 12:39:46;;;;;;;14.80;2.78;;;6.20;83.60;;;;;;5114832;28;20046;-50
2022/01/09 12:42:13;;;;;;;13.32;2.58;;;6.30;83.60;;;;;;5113828;28;20047;-52
2022/01/09 12:44:40;;;;;;;15.15;2.70;;;6.30;83.30;;;;;;5113635;28;20043;-49
2022/01/09 12:47:07;;;;;;;14.13;3.83;;;6.30;84.00;;;;;;5113685;28;20040;-50
2022/01/09 12:49:34;;;;;;;13.85;2.67;;;6.30;84.20;;;;;;5114899;28;20498;-50
2022/01/09 12:52:03;;;;;;;11.07;2.67;;;6.40;83.20;;;;;;5115121;28;20048;-50
2022/01/09 12:54:30;;;;;;;12.25;2.55;;;6.40;83.20;;;;;;5115118;28;20046;-48
2022/01/09 12:56:57;;;;;;;14.48;2.90;;;6.40;83.00;;;;;;5114545;28;20074;-47
2022/01/09 12:59:26;;;;;;;12.07;2.83;;;6.50;83.20;;;;;;5114820;28;20043;-53
2022/01/09 13:01:53;;;;;;;15.85;3.08;;;6.50;82.30;;;;;;5114504;28;20042;-51
2022/01/09 13:04:19;;;;;;;15.30;2.47;;;6.50;81.80;;;;;;5113178;28;20043;-53
2022/01/09 13:06:49;;;;;;;14.43;2.90;;;6.60;81.70;;;;;;5114376;28;20051;-49
2022/01/09 13:09:17;;;;;;;10.50;3.13;;;6.60;81.40;;;;;;5114274;28;20036;-56
2022/01/09 13:11:46;;;;;;;13.23;3.17;;;6.60;80.80;;;;;;5113654;28;20118;-48
2022/01/09 13:14:29;;;;;;;12.80;2.80;;;6.70;80.90;;;;;;5114550;28;20148;-52
2022/01/09 13:16:57;;;;;;;11.55;2.70;;;6.80;81.30;;;;;;5112898;28;20054;-51
2022/01/09 13:19:24;;;;;;;13.52;2.53;;;6.90;80.70;;;;;;5114423;28;20040;-49
2022/01/09 13:22:09;;;;;;;11.55;2.40;;;6.90;81.10;;;;;;5112959;28;20039;-53
2022/01/09 13:24:35;;;;;;;12.23;3.00;;;7.00;79.00;;;;;;5113165;28;20538;-47
2022/01/09 13:27:02;;;;;;;11.20;2.65;;;7.00;79.60;;;;;;5113980;28;20079;-51
2022/01/09 13:29:29;;;;;;;14.20;2.75;;;7.10;79.40;;;;;;5113760;28;20580;-53
2022/01/09 13:31:56;;;;;;;13.07;2.72;;;7.10;79.60;;;;;;5113801;27;20057;-51
2022/01/09 13:34:23;;;;;;;11.85;3.45;;;7.10;79.70;;;;;;5106946;28;20048;-49
2022/01/09 13:36:50;;;;;;;10.98;2.72;;;7.10;79.60;;;;;;5106783;28;20135;-50
2022/01/09 13:39:17;;;;;;;14.13;3.00;;;7.10;78.80;;;;;;5103500;28;20425;-51
2022/01/09 13:41:43;;;;;;;11.30;2.72;;;7.10;77.90;;;;;;5104946;28;20064;-50
2022/01/09 13:44:10;;;;;;;14.10;2.58;;;7.00;79.10;;;;;;5108288;28;20043;-49
2022/01/09 13:46:37;;;;;;;16.10;2.58;;;7.00;79.00;;;;;;5106458;28;20122;-53
2022/01/09 13:49:04;;;;;;;13.82;2.50;;;7.00;79.40;;;;;;5112352;28;20048;-49
2022/01/09 13:51:31;;;;;;;14.60;2.85;;;7.00;78.60;;;;;;5113663;28;20075;-49
2022/01/09 13:53:57;;;;;;;13.10;2.58;;;7.00;79.00;;;;;;5113678;28;20066;-49
2022/01/09 13:56:24;;;;;;;14.15;3.33;;;7.10;78.60;;;;;;5113539;27;20120;-51
2022/01/09 13:58:51;;;;;;;10.73;2.28;;;7.10;78.50;;;;;;5112403;28;20047;-47
2022/01/09 14:01:18;;;;;;;11.05;2.28;;;7.10;77.70;;;;;;5113353;28;20534;-49
2022/01/09 14:03:45;;;;;;;13.52;2.40;;;7.10;77.70;;;;;;5113293;28;20066;-52
2022/01/09 14:06:12;;;;;;;11.15;2.88;;;7.10;78.10;;;;;;5113290;28;20110;-50
2022/01/09 14:08:39;;;;;;;17.45;4.70;;;7.10;78.30;;;;;;5113380;28;20044;-47
2022/01/09 14:11:09;;;;;;;20.10;5.10;;;7.10;78.60;;;;;;5113244;28;20043;-50
2022/01/09 14:13:36;;;;;;;11.50;2.50;;;7.00;79.00;;;;;;5112390;28;20478;-48
2022/01/09 14:16:03;;;;;;;14.50;2.22;;;7.10;78.00;;;;;;5113138;28;20043;-49
2022/01/09 14:18:29;;;;;;;11.88;2.80;;;7.10;78.10;;;;;;5113345;28;20425;-48
2022/01/09 14:20:56;;;;;;;15.65;3.83;;;7.00;78.40;;;;;;5112499;28;20042;-47
2022/01/09 14:23:23;;;;;;;15.85;3.10;;;7.00;79.20;;;;;;5111755;28;20482;-45
2022/01/09 14:25:50;;;;;;;10.35;2.55;;;6.90;80.20;;;;;;5112529;28;20032;-49
2022/01/09 14:28:17;;;;;;;14.23;3.25;;;6.90;79.70;;;;;;5111837;28;20047;-51
2022/01/09 14:30:44;;;;;;;10.95;2.50;;;6.90;79.30;;;;;;5112932;28;20130;-49
2022/01/09 14:33:12;;;;;;;10.27;2.15;;;6.80;80.00;;;;;;5113154;28;20513;-51
2022/01/09 14:35:39;;;;;;;12.77;2.92;;;6.80;80.30;;;;;;5112984;28;20042;-52
2022/01/09 14:38:06;;;;;;;11.65;2.60;;;6.70;80.80;;;;;;5112040;28;20035;-48
2022/01/09 14:40:33;;;;;;;13.13;2.78;;;6.70;80.20;;;;;;5113306;28;20040;-48
2022/01/09 14:42:59;;;;;;;12.13;2.85;;;6.80;80.00;;;;;;5112282;28;20043;-47
2022/01/09 14:45:26;;;;;;;12.32;3.05;;;6.80;81.10;;;;;;5113147;28;20040;-48
2022/01/09 14:47:53;;;;;;;14.07;2.80;;;6.80;81.00;;;;;;5112222;28;20063;-51
2022/01/09 14:50:20;;;;;;;13.45;2.78;;;6.80;81.20;;;;;;5113090;28;20039;-49
2022/01/09 14:52:47;;;;;;;19.63;3.10;;;6.90;81.30;;;;;;5112363;28;20043;-45
2022/01/09 14:55:13;;;;;;;12.45;2.78;;;6.90;80.30;;;;;;5113160;28;20078;-48
2022/01/09 14:57:40;;;;;;;18.27;2.85;;;6.90;80.30;;;;;;5110994;28;20039;-47
2022/01/09 15:00:07;;;;;;;10.65;2.63;;;6.90;80.70;;;;;;5113017;28;20046;-49
2022/01/09 15:02:34;;;;;;;13.85;3.08;;;6.90;80.50;;;;;;5112226;28;20027;-51
2022/01/09 15:05:01;;;;;;;12.93;2.95;;;6.90;80.00;;;;;;5113066;28;20043;-49
2022/01/09 15:07:28;;;;;;;12.80;2.83;;;6.80;80.50;;;;;;5112124;28;20066;-52
2022/01/09 15:09:54;;;;;;;15.30;3.05;;;6.80;80.20;;;;;;5114473;28;20066;-50
2022/01/09 15:12:21;;;;;;;15.27;2.83;;;6.80;80.70;;;;;;5115982;28;20040;-50
2022/01/09 15:14:51;;;;;;;14.57;2.72;;;6.80;81.40;;;;;;5115477;28;20383;-48
2022/01/09 15:17:18;;;;;;;19.45;3.60;;;6.80;81.50;;;;;;5116739;28;20039;-47
2022/01/09 15:19:45;;;;;;;16.08;3.53;;;6.70;81.40;;;;;;5116099;28;20391;-51
2022/01/09 15:22:12;;;;;;;17.38;3.63;;;6.70;81.50;;;;;;5116546;28;20043;-48
2022/01/09 15:24:39;;;;;;;12.95;3.38;;;6.60;81.80;;;;;;5115665;28;20510;-45
2022/01/09 15:27:07;;;;;;;12.10;2.75;;;6.60;81.70;;;;;;5116466;28;20386;-51
2022/01/09 15:29:33;;;;;;;13.32;3.28;;;6.50;82.20;;;;;;5116510;28;20046;-52
2022/01/09 15:32:01;;;;;;;18.05;5.60;;;6.50;82.30;;;;;;5117106;28;20050;-53
2022/01/09 15:34:28;;;;;;;13.50;4.00;;;6.50;82.50;;;;;;5116328;28;20482;-50
2022/01/09 15:37:02;;;;;;;17.23;3.15;;;6.40;82.90;;;;;;5116075;28;20097;-49
2022/01/09 15:39:29;;;;;;;17.05;3.42;;;6.40;83.20;;;;;;5115510;28;20055;-54
2022/01/09 15:41:55;;;;;;;13.00;2.92;;;6.40;83.40;;;;;;5115069;28;20084;-49
2022/01/09 15:44:24;;;;;;;14.32;3.45;;;6.40;83.70;;;;;;5116076;28;20125;-51
2022/01/09 15:46:50;;;;;;;13.93;3.30;;;6.40;84.10;;;;;;5116071;28;20100;-53
2022/01/09 15:49:17;;;;;;;16.63;4.40;;;6.40;85.20;;;;;;5115297;28;20388;-47
2022/01/09 15:51:46;;;;;;;13.15;3.38;;;6.40;84.70;;;;;;5115912;28;20047;-50
2022/01/09 15:54:13;;;;;;;10.32;3.00;;;6.40;84.30;;;;;;5115843;28;20036;-50
2022/01/09 15:56:40;;;;;;;15.27;4.07;;;6.50;84.50;;;;;;5115867;28;20148;-50
2022/01/09 15:59:07;;;;;;;14.07;3.80;;;6.50;84.90;;;;;;5115071;27;20039;-52
2022/01/09 16:01:34;;;;;;;14.45;3.10;;;6.50;84.40;;;;;;5115967;28;20455;-46
2022/01/09 16:04:00;;;;;;;14.02;3.08;;;6.50;84.40;;;;;;5115640;28;20089;-47
2022/01/09 16:06:28;;;;;;;15.48;3.58;;;6.60;84.10;;;;;;5115549;28;20122;-51
2022/01/09 16:08:58;;;;;;;14.73;3.25;;;6.60;84.60;;;;;;5114417;28;20048;-47
2022/01/09 16:11:26;;;;;;;13.48;3.30;;;6.60;84.70;;;;;;5115687;28;20043;-52
2022/01/09 16:13:52;;;;;;;16.10;3.53;;;6.60;84.70;;;;;;5115397;28;20050;-53
2022/01/09 16:16:19;;;;;;;10.50;3.20;;;6.60;84.70;;;;;;5115261;28;20130;-45
2022/01/09 16:18:46;;;;;;;15.63;4.25;;;6.60;84.70;;;;;;5115463;28;20043;-45
2022/01/09 16:21:13;;;;;;;19.65;4.20;;;6.60;84.30;;;;;;5115379;28;20035;-47
2022/01/09 16:23:40;;;;;;;16.75;3.63;;;6.60;84.80;;;;;;5115091;28;20121;-49
2022/01/09 16:26:07;;;;;;;16.38;4.55;;;6.60;84.70;;;;;;5114584;28;20541;-48
2022/01/09 16:28:33;;;;;;;12.75;3.00;;;6.60;84.70;;;;;;5115156;28;20042;-47
2022/01/09 16:31:01;;;;;;;13.02;3.38;;;6.60;84.80;;;;;;5115093;28;20130;-46
2022/01/09 16:33:32;;;;;;;10.68;2.97;;;6.60;84.90;;;;;;5115353;28;20035;-48
2022/01/09 16:36:00;;;;;;;15.18;4.10;;;6.60;84.90;;;;;;5115214;28;20123;-49
2022/01/09 16:38:27;;;;;;;16.23;3.40;;;6.60;84.90;;;;;;5114511;28;20040;-50
2022/01/09 16:40:53;;;;;;;10.88;3.30;;;6.60;84.60;;;;;;5115005;27;20486;-50
2022/01/09 16:43:20;;;;;;;13.18;3.08;;;6.60;84.80;;;;;;5114222;28;20047;-49
2022/01/09 16:45:47;;;;;;;14.23;3.53;;;6.60;84.60;;;;;;5114882;28;20491;-46
2022/01/09 16:48:14;;;;;;;20.98;4.75;;;6.60;84.90;;;;;;5114838;28;20051;-46
2022/01/09 16:50:41;;;;;;;11.10;2.95;;;6.60;84.90;;;;;;5114047;28;20047;-50
2022/01/09 16:53:08;;;;;;;9.70;2.67;;;6.60;85.10;;;;;;5114812;28;20050;-45
2022/01/09 16:55:35;;;;;;;14.10;3.75;;;6.60;85.20;;;;;;5114987;28;20135;-48
2022/01/09 16:58:02;;;;;;;15.18;3.20;;;6.60;84.90;;;;;;5114161;28;20047;-49
2022/01/09 17:00:28;;;;;;;12.00;4.15;;;6.50;85.30;;;;;;5108397;28;20397;-51
2022/01/09 17:02:55;;;;;;;13.98;3.80;;;6.50;85.90;;;;;;5114548;28;20089;-47
2022/01/09 17:05:23;;;;;;;15.75;4.18;;;6.50;86.60;;;;;;5113648;28;20070;-50
2022/01/09 17:07:50;;;;;;;14.63;4.28;;;6.40;86.20;;;;;;5114520;28;20509;-48
2022/01/09 17:10:17;;;;;;;18.77;4.72;;;6.40;86.60;;;;;;5114474;28;20039;-54
2022/01/09 17:12:44;;;;;;;16.25;3.92;;;6.30;86.90;;;;;;5114585;28;20043;-46
2022/01/09 17:15:11;;;;;;;17.02;4.38;;;6.30;87.20;;;;;;5114541;28;20118;-50
2022/01/09 17:17:45;;;;;;;13.15;3.83;;;6.20;87.10;;;;;;5114728;28;20067;-51
2022/01/09 17:20:12;;;;;;;21.05;4.78;;;6.20;87.30;;;;;;5114545;28;20039;-50
2022/01/09 17:22:39;;;;;;;20.48;4.47;;;6.10;87.50;;;;;;5107572;28;20051;-48
2022/01/09 17:25:06;;;;;;;16.88;3.65;;;6.10;87.80;;;;;;5114067;28;20126;-49
2022/01/09 17:27:33;;;;;;;14.15;4.57;;;6.00;87.90;;;;;;5112121;28;20047;-51
2022/01/09 17:30:03;;;;;;;16.85;4.38;;;6.00;88.60;;;;;;5114395;28;20387;-47
2022/01/09 17:32:30;;;;;;;14.30;3.83;;;5.90;88.90;;;;;;5112423;28;20035;-51
2022/01/09 17:34:57;;;;;;;21.83;4.85;;;5.90;89.30;;;;;;5114082;28;20070;-50
2022/01/09 17:37:23;;;;;;;15.18;3.78;;;5.80;89.40;;;;;;5112900;28;20046;-49
2022/01/09 17:39:50;;;;;;;16.15;4.05;;;5.80;89.10;;;;;;5113988;28;20521;-50
2022/01/09 17:42:17;;;;;;;16.90;3.35;;;5.80;89.10;;;;;;5113231;28;20147;-47
2022/01/09 17:44:44;;;;;;;17.02;3.97;;;5.70;89.60;;;;;;5112521;28;20089;-48
2022/01/09 17:47:11;;;;;;;19.40;3.92;;;5.60;89.70;;;;;;5113056;28;20092;-51
2022/01/09 17:49:40;;;;;;;15.85;4.82;;;5.60;89.70;;;;;;5105115;28;20451;-50
2022/01/09 17:52:07;;;;;;;12.75;4.10;;;5.60;89.90;;;;;;5112611;28;20047;-47
2022/01/09 17:54:33;;;;;;;13.75;4.82;;;5.50;90.20;;;;;;5113190;28;20398;-47
2022/01/09 17:57:02;;;;;;;15.18;4.38;;;5.50;90.40;;;;;;5113470;28;20370;-50
2022/01/09 17:59:29;;;;;;;21.50;4.78;;;5.40;90.70;;;;;;5112045;28;20402;-49
2022/01/09 18:01:56;;;;;;;17.98;4.95;;;5.50;90.50;;;;;;5112410;28;20039;-54
2022/01/09 18:04:23;;;;;;;18.70;5.22;;;5.40;90.40;;;;;;5113248;28;20055;-51
2022/01/09 18:06:50;;;;;;;23.80;8.13;;;5.40;90.80;;;;;;5113208;28;20176;-53
2022/01/09 18:09:17;;;;;;;22.40;8.45;;;5.40;90.50;;;;;;5112247;28;20379;-53
2022/01/09 18:11:44;;;;;;;26.75;10.68;;;5.40;90.50;;;;;;5113029;28;20078;-51
2022/01/09 18:14:10;;;;;;;24.45;9.38;;;5.30;90.50;;;;;;5112268;28;20043;-52
2022/01/09 18:16:37;;;;;;;17.60;7.85;;;5.30;90.60;;;;;;5108437;28;20036;-54
2022/01/09 18:19:04;;;;;;;19.25;7.53;;;5.30;90.80;;;;;;5113310;28;20057;-49
2022/01/09 18:21:33;;;;;;;22.40;7.07;;;5.20;90.90;;;;;;5113490;28;20064;-49
2022/01/09 18:24:00;;;;;;;19.48;6.35;;;5.20;90.80;;;;;;5112173;28;20159;-48
2022/01/09 18:26:27;;;;;;;16.95;5.43;;;5.20;90.90;;;;;;5113311;28;20040;-46
2022/01/09 18:28:55;;;;;;;20.90;5.45;;;5.20;90.90;;;;;;5113507;28;20048;-51
2022/01/09 18:31:24;;;;;;;18.48;5.95;;;5.20;91.10;;;;;;5113237;28;20043;-51
2022/01/09 18:33:51;;;;;;;17.95;5.55;;;5.10;91.20;;;;;;5111972;28;20375;-51
2022/01/09 18:36:19;;;;;;;15.25;4.90;;;5.10;91.20;;;;;;5113287;28;20496;-51
2022/01/09 18:38:46;;;;;;;16.83;5.20;;;5.10;91.40;;;;;;5105840;28;20040;-48
2022/01/09 18:41:13;;;;;;;14.13;5.35;;;5.00;91.30;;;;;;5112358;28;20050;-49
2022/01/09 18:43:39;;;;;;;21.35;6.07;;;5.00;91.20;;;;;;5112070;28;20058;-54
2022/01/09 18:46:06;;;;;;;21.02;6.05;;;5.00;91.40;;;;;;5116846;28;20456;-50
2022/01/09 18:48:33;;;;;;;17.77;5.15;;;5.00;91.50;;;;;;5117348;28;20051;-51
2022/01/09 18:51:00;;;;;;;18.27;5.43;;;4.90;91.60;;;;;;5117091;28;20126;-48
2022/01/09 18:53:27;;;;;;;17.63;4.60;;;4.90;91.80;;;;;;5117113;28;20039;-47
2022/01/09 18:55:54;;;;;;;24.48;5.90;;;4.90;91.80;;;;;;5117031;28;20040;-48
2022/01/09 18:58:20;;;;;;;18.45;4.70;;;4.90;91.90;;;;;;5116719;28;20035;-51
2022/01/09 19:00:47;;;;;;;22.13;6.22;;;4.90;91.90;;;;;;5115682;28;20039;-48
2022/01/09 19:03:14;;;;;;;19.13;5.65;;;4.80;91.90;;;;;;5116861;28;20502;-50
2022/01/09 19:05:41;;;;;;;20.95;6.18;;;4.80;92.10;;;;;;5116826;28;20051;-49
2022/01/09 19:08:08;;;;;;;24.48;7.53;;;4.80;92.20;;;;;;5116877;28;20121;-53
2022/01/09 19:10:36;;;;;;;20.95;6.25;;;4.80;92.10;;;;;;5115678;28;20039;-51
2022/01/09 19:13:03;;;;;;;25.95;6.90;;;4.70;92.10;;;;;;5116782;28;20051;-52
2022/01/09 19:15:31;;;;;;;24.35;6.75;;;4.70;92.40;;;;;;5116694;28;20036;-51
2022/01/09 19:17:57;;;;;;;27.30;6.00;;;4.70;92.70;;;;;;5116417;27;20097;-50
2022/01/09 19:20:24;;;;;;;19.23;6.10;;;4.60;92.50;;;;;;5116496;28;20122;-47
2022/01/09 19:22:52;;;;;;;19.45;5.78;;;4.60;92.50;;;;;;5116298;28;20062;-51
2022/01/09 19:25:19;;;;;;;19.95;5.50;;;4.60;92.70;;;;;;5115567;28;20043;-52
2022/01/09 19:27:46;;;;;;;19.02;5.82;;;4.50;92.80;;;;;;5116353;28;20039;-48
2022/01/09 19:30:12;;;;;;;19.05;5.53;;;4.50;92.80;;;;;;5116320;28;20513;-53
2022/01/09 19:32:39;;;;;;;25.25;7.43;;;4.50;92.70;;;;;;5116220;28;20482;-52
2022/01/09 19:35:06;;;;;;;19.55;6.82;;;4.50;92.70;;;;;;5116183;28;20082;-46
2022/01/09 19:37:33;;;;;;;24.95;6.72;;;4.40;92.60;;;;;;5116117;28;20094;-50
2022/01/09 19:40:00;;;;;;;20.90;7.57;;;4.40;92.90;;;;;;5116121;27;20031;-52
2022/01/09 19:42:26;;;;;;;23.02;9.18;;;4.40;92.80;;;;;;5116044;28;20134;-53
2022/01/09 19:44:53;;;;;;;22.67;9.43;;;4.30;92.80;;;;;;5116135;28;20108;-50
2022/01/09 19:47:20;;;;;;;20.77;8.50;;;4.30;92.90;;;;;;5115828;28;20069;-53
2022/01/09 19:49:47;;;;;;;19.90;8.10;;;4.20;93.10;;;;;;5115922;28;20042;-52
2022/01/09 19:52:14;;;;;;;24.30;9.18;;;4.20;93.10;;;;;;5114771;28;20073;-53
2022/01/09 19:54:41;;;;;;;22.92;8.32;;;4.10;93.20;;;;;;5115777;28;20401;-50
2022/01/09 19:57:13;;;;;;;24.40;7.95;;;4.10;93.20;;;;;;5115791;28;20046;-46
2022/01/09 19:59:40;;;;;;;23.13;7.57;;;4.00;93.30;;;;;;5110341;28;20040;-54
2022/01/09 20:02:08;;;;;;;24.63;9.48;;;4.00;93.30;;;;;;5115624;28;20069;-53
2022/01/09 20:04:35;;;;;;;22.92;9.77;;;3.90;93.40;;;;;;5114562;28;20504;-54
2022/01/09 20:07:02;;;;;;;22.00;9.70;;;3.90;93.50;;;;;;5115524;28;20071;-54
2022/01/09 20:09:28;;;;;;;21.38;9.32;;;3.90;93.60;;;;;;5114611;28;20474;-53
2022/01/09 20:11:55;;;;;;;25.80;9.48;;;3.90;93.40;;;;;;5115483;28;20039;-52
2022/01/09 20:14:22;;;;;;;21.83;9.27;;;3.90;93.40;;;;;;5114618;28;20588;-53
2022/01/09 20:16:49;;;;;;;20.80;9.18;;;3.90;93.40;;;;;;5115219;28;20457;-53
2022/01/09 20:19:17;;;;;;;20.30;8.48;;;3.80;93.30;;;;;;5114746;28;20067;-53
2022/01/09 20:21:43;;;;;;;24.77;8.60;;;3.70;93.40;;;;;;5109017;28;20388;-46
2022/01/09 20:24:10;;;;;;;19.10;9.25;;;3.70;93.50;;;;;;5108686;28;20051;-53
2022/01/09 20:26:37;;;;;;;24.85;10.00;;;3.70;93.50;;;;;;5114902;28;20032;-52
2022/01/09 20:29:04;;;;;;;20.38;8.93;;;3.60;93.70;;;;;;5115320;28;20126;-52
2022/01/09 20:31:31;;;;;;;23.33;9.38;;;3.60;93.80;;;;;;5114521;28;20104;-49
2022/01/09 20:34:00;;;;;;;24.92;9.57;;;3.60;93.80;;;;;;5113764;28;20050;-54
2022/01/09 20:36:26;;;;;;;22.35;9.07;;;3.50;93.90;;;;;;5114905;28;20394;-52
2022/01/09 20:38:55;;;;;;;22.42;10.13;;;3.50;93.90;;;;;;5114078;28;20078;-48
2022/01/09 20:41:22;;;;;;;19.20;9.98;;;3.40;93.90;;;;;;5114986;28;20047;-50
2022/01/09 20:43:49;;;;;;;22.02;9.70;;;3.40;94.20;;;;;;5114974;28;20078;-51
2022/01/09 20:46:16;;;;;;;23.38;10.25;;;3.30;94.00;;;;;;5111113;28;20525;-48
2022/01/09 20:48:44;;;;;;;21.83;11.13;;;3.30;94.20;;;;;;5104888;28;20043;-50
2022/01/09 20:51:11;;;;;;;22.50;11.13;;;3.30;94.20;;;;;;5106122;28;20082;-48
2022/01/09 20:53:38;;;;;;;20.40;11.18;;;3.30;94.10;;;;;;5104776;28;20040;-49
2022/01/09 20:56:04;;;;;;;23.15;10.95;;;3.20;94.10;;;;;;5110371;28;20040;-54
2022/01/09 20:58:32;;;;;;;28.27;11.48;;;3.20;94.20;;;;;;5114687;28;20044;-51
2022/01/09 21:00:59;;;;;;;24.80;10.43;;;3.20;94.10;;;;;;5114736;28;20479;-51
2022/01/09 21:03:27;;;;;;;26.83;11.98;;;3.10;94.20;;;;;;5113033;28;20100;-49
2022/01/09 21:05:53;;;;;;;24.38;11.55;;;3.10;94.10;;;;;;5114503;28;20040;-50
2022/01/09 21:08:20;;;;;;;25.30;13.68;;;3.10;94.30;;;;;;5113690;28;20054;-50
2022/01/09 21:10:47;;;;;;;30.70;14.85;;;3.10;94.20;;;;;;5114489;28;20051;-47
2022/01/09 21:13:14;;;;;;;34.80;16.63;;;3.20;94.60;;;;;;5113814;28;20478;-51
2022/01/09 21:15:40;;;;;;;28.15;14.35;;;3.10;94.50;;;;;;5114317;28;20043;-49
2022/01/09 21:18:07;;;;;;;31.02;14.15;;;3.20;94.60;;;;;;5114402;28;20048;-50
2022/01/09 21:20:34;;;;;;;29.48;12.52;;;3.20;94.50;;;;;;5113915;28;20448;-49
2022/01/09 21:23:04;;;;;;;29.08;13.43;;;3.10;94.40;;;;;;5114172;28;20046;-47
2022/01/09 21:25:30;;;;;;;26.20;13.10;;;3.20;94.20;;;;;;5114377;28;20122;-52
2022/01/09 21:27:59;;;;;;;28.25;13.27;;;3.10;94.10;;;;;;5113542;28;20043;-46
2022/01/09 21:30:26;;;;;;;21.83;12.40;;;3.00;94.00;;;;;;5114531;28;20040;-50
2022/01/09 21:32:53;;;;;;;28.27;13.85;;;3.00;93.90;;;;;;5114010;28;20498;-50
2022/01/09 21:35:19;;;;;;;24.80;13.00;;;2.90;94.20;;;;;;5113119;28;20486;-50
2022/01/09 21:37:46;;;;;;;24.40;12.82;;;2.90;94.30;;;;;;5112528;28;20035;-50
2022/01/09 21:40:13;;;;;;;22.92;13.15;;;2.80;94.30;;;;;;5112943;28;20118;-51
2022/01/09 21:42:40;;;;;;;20.83;12.30;;;2.80;94.20;;;;;;5113830;28;20036;-51
2022/01/09 21:45:07;;;;;;;24.30;13.23;;;2.80;94.50;;;;;;5109606;28;20038;-51
2022/01/09 21:47:33;;;;;;;28.23;14.43;;;2.80;94.50;;;;;;5113672;28;20042;-51
2022/01/09 21:50:00;;;;;;;25.73;12.70;;;2.80;94.50;;;;;;5113290;28;20454;-47
2022/01/09 21:52:27;;;;;;;22.55;11.35;;;2.80;94.50;;;;;;5113770;28;20058;-50
2022/01/09 21:54:54;;;;;;;24.27;11.85;;;2.80;94.70;;;;;;5112713;28;20406;-54
2022/01/09 21:57:22;;;;;;;32.85;13.25;;;2.80;94.60;;;;;;5113600;28;20093;-50
